Time;durP1;ratioP1;P1;durP2;ratioP2;P2;SDS_P1;SDS_P2;PMS_P1;PMS_P2;Temp;Humidity;BMP_temperature;BMP_pressure;BME280_temperature;BME280_humidity;BME280_pressure;Samples;Min_cycle;Max_cycle;Signal;HPM_P1;HPM_P2
2021/08/07 00:01:09;;;;;;;4.90;4.50;;;16.40;99.90;;;;;;4998777;28;20251;-66
2021/08/07 00:03:37;;;;;;;4.50;4.10;;;16.40;99.90;;;;;;4997839;28;20211;-65
2021/08/07 00:06:21;;;;;;;5.80;4.75;;;16.30;99.90;;;;;;4998473;28;20425;-65
2021/08/07 00:08:48;;;;;;;4.35;4.05;;;16.20;99.90;;;;;;5012301;28;20429;-65
2021/08/07 00:11:15;;;;;;;4.40;4.00;;;16.00;99.90;;;;;;4998511;28;20207;-66
2021/08/07 00:13:42;;;;;;;6.72;4.00;;;16.00;99.90;;;;;;4998413;28;20255;-66
2021/08/07 00:16:10;;;;;;;6.35;4.00;;;15.90;99.90;;;;;;4998660;28;20234;-65
2021/08/07 00:18:37;;;;;;;4.82;4.30;;;16.00;99.90;;;;;;4995000;28;20200;-65
2021/08/07 00:21:04;;;;;;;6.15;4.80;;;16.10;99.90;;;;;;4998671;28;20210;-65
2021/08/07 00:23:31;;;;;;;5.68;4.97;;;15.90;99.90;;;;;;4998164;28;20207;-66
2021/08/07 00:25:58;;;;;;;5.43;5.03;;;15.60;99.90;;;;;;4998796;28;20582;-66
2021/08/07 00:28:25;;;;;;;9.70;6.40;;;15.60;99.90;;;;;;5001519;28;20240;-65
2021/08/07 00:30:52;;;;;;;5.88;5.30;;;15.80;99.90;;;;;;5001724;28;20241;-66
2021/08/07 00:33:19;;;;;;;5.10;4.57;;;16.00;99.90;;;;;;5000287;28;20540;-65
2021/08/07 00:35:46;;;;;;;5.43;4.55;;;16.20;99.90;;;;;;5002312;28;20233;-65
2021/08/07 00:38:14;;;;;;;6.20;4.93;;;16.40;99.90;;;;;;4981777;28;20490;-66
2021/08/07 00:40:42;;;;;;;6.00;4.73;;;16.60;99.90;;;;;;4992893;28;20205;-66
2021/08/07 00:43:10;;;;;;;5.22;4.82;;;16.70;99.90;;;;;;5003425;28;20436;-65
2021/08/07 00:45:39;;;;;;;5.18;4.68;;;16.80;99.90;;;;;;5006215;28;20204;-65
2021/08/07 00:48:08;;;;;;;4.97;4.57;;;17.20;99.90;;;;;;5007918;28;20603;-66
2021/08/07 00:50:36;;;;;;;5.10;4.60;;;16.80;99.90;;;;;;5048876;28;20199;-66
2021/08/07 00:53:04;;;;;;;7.18;4.80;;;17.00;99.90;;;;;;5008786;28;20202;-65
2021/08/07 00:55:31;;;;;;;6.47;4.93;;;17.00;99.90;;;;;;4995516;28;20228;-66
2021/08/07 00:57:59;;;;;;;5.40;5.00;;;17.00;99.90;;;;;;4986442;28;20201;-66
2021/08/07 01:00:26;;;;;;;4.47;4.10;;;17.10;99.90;;;;;;4997912;28;20208;-65
2021/08/07 01:03:13;;;;;;;6.10;4.90;;;17.00;99.90;;;;;;4985300;28;20450;-65
2021/08/07 01:05:48;;;;;;;5.85;5.28;;;17.10;99.90;;;;;;5003290;28;20553;-65
2021/08/07 01:08:20;;;;;;;5.17;4.77;;;17.10;99.90;;;;;;4993718;28;20256;-65
2021/08/07 01:11:18;;;;;;;6.43;5.83;;;17.00;99.90;;;;;;4988402;28;20466;-65
2021/08/07 01:13:57;;;;;;;8.77;7.70;;;16.90;99.90;;;;;;4992956;28;20429;-65
2021/08/07 01:16:34;;;;;;;6.50;5.90;;;16.80;99.90;;;;;;5000460;28;20712;-65
2021/08/07 01:19:02;;;;;;;6.93;5.50;;;16.80;99.90;;;;;;4988683;28;20262;-65
2021/08/07 01:21:42;;;;;;;6.10;5.60;;;16.80;99.90;;;;;;4989277;28;20442;-65
2021/08/07 01:24:35;;;;;;;6.87;6.27;;;16.70;99.90;;;;;;5001145;28;20534;-66
2021/08/07 01:27:15;;;;;;;5.53;5.03;;;16.60;99.90;;;;;;4995487;28;20496;-65
2021/08/07 01:29:45;;;;;;;6.35;5.70;;;16.60;99.90;;;;;;4997954;28;20214;-65
2021/08/07 01:32:13;;;;;;;6.85;5.80;;;16.50;99.90;;;;;;5006912;28;20346;-65
2021/08/07 01:34:40;;;;;;;6.28;5.68;;;16.50;99.90;;;;;;5005534;28;20252;-65
2021/08/07 01:37:08;;;;;;;6.53;5.88;;;16.50;99.90;;;;;;5001220;28;20331;-65
2021/08/07 01:39:35;;;;;;;6.65;6.05;;;16.40;99.90;;;;;;5001105;28;20242;-64
2021/08/07 01:42:02;;;;;;;6.05;5.55;;;16.20;99.90;;;;;;5001294;28;20743;-65
2021/08/07 01:44:29;;;;;;;6.25;5.75;;;16.20;99.90;;;;;;4999711;28;20202;-66
2021/08/07 01:47:05;;;;;;;9.35;6.03;;;16.20;99.90;;;;;;5003148;28;20544;-65
2021/08/07 01:50:16;;;;;;;10.25;6.25;;;16.20;99.90;;;;;;5010245;28;20244;-65
2021/08/07 01:52:46;;;;;;;7.00;6.50;;;16.20;99.90;;;;;;4981807;28;20203;-65
2021/08/07 01:55:33;;;;;;;10.45;7.43;;;16.20;99.90;;;;;;5008140;28;20229;-65
2021/08/07 01:58:07;;;;;;;7.95;7.25;;;16.20;99.90;;;;;;4991671;28;20245;-65
2021/08/07 02:00:36;;;;;;;15.88;7.07;;;16.10;99.90;;;;;;4996765;28;20217;-64
2021/08/07 02:03:04;;;;;;;8.65;7.85;;;16.10;99.90;;;;;;4981411;28;20211;-65
2021/08/07 02:05:32;;;;;;;7.75;7.05;;;15.90;99.90;;;;;;4996937;28;20235;-65
2021/08/07 02:08:00;;;;;;;10.75;8.20;;;15.90;99.90;;;;;;5000565;28;20236;-64
2021/08/07 02:10:27;;;;;;;9.55;8.32;;;15.90;99.90;;;;;;5000012;28;20428;-66
2021/08/07 02:12:54;;;;;;;8.77;7.88;;;15.90;99.90;;;;;;5000405;28;20209;-64
2021/08/07 02:15:22;;;;;;;8.63;7.72;;;15.80;99.90;;;;;;4999907;28;20232;-65
2021/08/07 02:17:50;;;;;;;10.82;8.00;;;15.80;99.90;;;;;;4997303;28;20234;-64
2021/08/07 02:20:19;;;;;;;9.40;7.40;;;15.70;99.90;;;;;;4991640;28;20269;-64
2021/08/07 02:22:50;;;;;;;9.98;8.48;;;15.70;99.90;;;;;;4990324;28;20245;-65
2021/08/07 02:25:17;;;;;;;10.18;8.88;;;15.60;99.90;;;;;;4999785;28;20420;-65
2021/08/07 02:27:44;;;;;;;9.40;8.50;;;15.60;99.90;;;;;;5000322;28;20238;-65
2021/08/07 02:30:12;;;;;;;10.27;9.20;;;15.50;99.90;;;;;;5000135;28;20452;-66
2021/08/07 02:32:41;;;;;;;9.85;8.65;;;15.50;99.90;;;;;;5010103;28;20201;-65
2021/08/07 02:35:13;;;;;;;9.32;8.38;;;15.50;99.90;;;;;;4998608;28;20229;-64
2021/08/07 02:37:41;;;;;;;9.52;8.75;;;15.40;99.90;;;;;;4999912;28;20267;-65
2021/08/07 02:40:10;;;;;;;10.45;7.90;;;15.40;99.90;;;;;;4999608;28;20206;-65
2021/08/07 02:42:38;;;;;;;8.40;7.70;;;15.30;99.90;;;;;;4999855;28;20231;-65
2021/08/07 02:45:06;;;;;;;7.88;7.18;;;15.50;99.90;;;;;;4999395;28;20544;-64
2021/08/07 02:47:34;;;;;;;10.10;9.18;;;15.50;99.90;;;;;;4991821;28;20202;-65
2021/08/07 02:50:04;;;;;;;8.98;8.13;;;15.50;99.90;;;;;;4994590;28;20206;-65
2021/08/07 02:52:33;;;;;;;9.23;7.82;;;15.50;99.90;;;;;;5000243;28;20202;-64
2021/08/07 02:55:03;;;;;;;8.70;7.88;;;15.50;99.90;;;;;;4999870;28;20206;-64
2021/08/07 02:57:31;;;;;;;9.25;8.23;;;15.50;99.90;;;;;;4999484;28;20213;-64
2021/08/07 02:59:58;;;;;;;9.38;8.30;;;15.40;99.90;;;;;;5000104;28;20252;-64
2021/08/07 03:02:26;;;;;;;8.25;7.45;;;15.50;99.90;;;;;;4999219;28;20198;-64
2021/08/07 03:04:53;;;;;;;8.82;8.02;;;15.40;99.90;;;;;;4997788;28;20547;-64
2021/08/07 03:07:20;;;;;;;9.88;8.82;;;15.40;99.90;;;;;;5001508;28;20306;-64
2021/08/07 03:09:47;;;;;;;9.68;8.77;;;15.40;99.90;;;;;;5000657;28;20240;-65
2021/08/07 03:12:15;;;;;;;10.80;9.60;;;15.40;99.90;;;;;;4999061;28;20213;-64
2021/08/07 03:14:43;;;;;;;12.82;8.50;;;15.40;99.90;;;;;;5000588;28;20252;-64
2021/08/07 03:17:10;;;;;;;10.63;9.55;;;15.40;99.90;;;;;;4998659;28;20225;-65
2021/08/07 03:19:37;;;;;;;10.32;9.32;;;15.30;99.90;;;;;;4989214;28;20198;-65
2021/08/07 03:22:04;;;;;;;9.30;8.27;;;15.20;99.90;;;;;;4999496;28;20244;-64
2021/08/07 03:24:31;;;;;;;9.60;8.60;;;15.30;99.90;;;;;;5038775;28;20217;-64
2021/08/07 03:26:58;;;;;;;14.15;8.23;;;15.20;99.90;;;;;;4997090;28;20205;-65
2021/08/07 03:29:26;;;;;;;9.23;8.32;;;15.20;99.90;;;;;;4989870;28;20247;-65
2021/08/07 03:31:52;;;;;;;8.93;8.02;;;15.20;99.90;;;;;;5014080;28;20443;-65
2021/08/07 03:34:20;;;;;;;8.68;7.57;;;15.20;99.90;;;;;;5012852;28;20209;-65
2021/08/07 03:36:47;;;;;;;10.20;9.15;;;15.20;99.90;;;;;;5011933;28;20499;-65
2021/08/07 03:39:14;;;;;;;11.43;8.07;;;15.10;99.90;;;;;;5014456;28;20209;-65
2021/08/07 03:41:41;;;;;;;8.85;7.47;;;15.30;99.90;;;;;;5007432;28;20223;-65
2021/08/07 03:44:08;;;;;;;9.75;7.85;;;15.20;99.90;;;;;;5006396;28;20252;-66
2021/08/07 03:46:35;;;;;;;8.88;8.07;;;15.40;99.90;;;;;;4999777;28;20256;-65
2021/08/07 03:49:02;;;;;;;7.85;7.15;;;15.40;99.90;;;;;;5005509;28;20197;-65
2021/08/07 03:51:29;;;;;;;9.00;6.72;;;15.30;99.90;;;;;;4993672;28;20206;-65
2021/08/07 03:53:56;;;;;;;8.75;7.95;;;15.20;99.90;;;;;;4997296;28;20252;-65
2021/08/07 03:56:23;;;;;;;9.88;7.72;;;15.30;99.90;;;;;;4998397;28;20542;-65
2021/08/07 03:58:50;;;;;;;8.85;7.10;;;15.50;99.90;;;;;;4994900;28;20406;-66
2021/08/07 04:01:17;;;;;;;9.40;7.93;;;15.60;99.90;;;;;;4987971;28;20202;-65
2021/08/07 04:03:45;;;;;;;7.90;7.10;;;15.60;99.90;;;;;;4999824;28;20202;-65
2021/08/07 04:06:26;;;;;;;8.80;6.75;;;15.60;99.90;;;;;;5007225;28;20283;-65
2021/08/07 04:08:53;;;;;;;7.50;6.80;;;15.70;99.90;;;;;;4995369;28;20205;-65
2021/08/07 04:11:20;;;;;;;7.32;6.63;;;15.80;99.90;;;;;;4992629;28;20202;-66
2021/08/07 04:13:47;;;;;;;7.55;6.95;;;15.90;99.90;;;;;;4991759;28;20210;-65
2021/08/07 04:16:14;;;;;;;9.82;7.55;;;15.90;99.90;;;;;;4997041;28;20460;-66
2021/08/07 04:18:41;;;;;;;6.20;5.68;;;16.50;99.90;;;;;;4988670;28;20257;-65
2021/08/07 04:21:08;;;;;;;5.05;4.65;;;16.10;99.90;;;;;;4986331;28;20205;-65
2021/08/07 04:23:35;;;;;;;6.95;6.35;;;16.40;99.90;;;;;;4997867;28;20202;-65
2021/08/07 04:26:02;;;;;;;7.45;5.95;;;16.50;99.90;;;;;;4997272;28;20225;-64
2021/08/07 04:28:29;;;;;;;10.05;4.43;;;16.40;99.90;;;;;;4996764;28;20397;-65
2021/08/07 04:30:56;;;;;;;6.47;5.80;;;16.50;99.90;;;;;;4997048;28;20246;-65
2021/08/07 04:33:23;;;;;;;4.97;4.57;;;16.50;99.90;;;;;;4981725;28;20198;-64
2021/08/07 04:35:50;;;;;;;5.28;4.78;;;16.50;99.90;;;;;;4990965;28;20238;-65
2021/08/07 04:38:19;;;;;;;5.72;5.22;;;16.60;99.90;;;;;;4986576;28;20394;-66
2021/08/07 04:40:46;;;;;;;4.60;4.15;;;16.60;99.90;;;;;;4999592;28;20208;-66
2021/08/07 04:43:13;;;;;;;7.33;4.80;;;16.70;99.90;;;;;;5000175;28;20210;-65
2021/08/07 04:45:40;;;;;;;7.20;5.23;;;16.80;99.90;;;;;;5000622;28;20510;-65
2021/08/07 04:48:07;;;;;;;5.30;4.28;;;16.90;99.90;;;;;;5000184;28;20642;-65
2021/08/07 04:50:35;;;;;;;5.10;4.60;;;17.00;99.90;;;;;;4990679;28;20331;-64
2021/08/07 04:53:04;;;;;;;4.77;4.37;;;17.10;99.90;;;;;;5008513;28;20623;-66
2021/08/07 04:55:31;;;;;;;6.43;4.50;;;17.20;99.90;;;;;;5003207;28;20440;-66
2021/08/07 04:57:58;;;;;;;5.38;4.88;;;17.30;99.90;;;;;;5010204;28;20441;-65
2021/08/07 05:00:25;;;;;;;5.83;5.23;;;17.50;99.90;;;;;;5012735;28;20261;-65
2021/08/07 05:02:52;;;;;;;7.90;4.50;;;17.70;99.90;;;;;;4999556;28;20649;-65
2021/08/07 05:05:20;;;;;;;7.90;5.20;;;17.80;99.90;;;;;;4947461;28;1153058;-65
2021/08/07 05:07:49;;;;;;;5.30;4.40;;;18.00;99.90;;;;;;5007127;28;20201;-65
2021/08/07 05:10:18;;;;;;;8.17;4.90;;;18.20;99.90;;;;;;5008986;28;20693;-65
2021/08/07 05:12:45;;;;;;;5.40;4.90;;;18.20;99.90;;;;;;4992417;28;20448;-65
2021/08/07 05:15:12;;;;;;;8.80;5.80;;;18.40;99.90;;;;;;5008437;28;20482;-65
2021/08/07 05:17:39;;;;;;;6.63;4.60;;;18.50;99.90;;;;;;5013031;28;20450;-66
2021/08/07 05:20:07;;;;;;;4.03;3.73;;;18.70;99.90;;;;;;4991107;28;20442;-65
2021/08/07 05:22:34;;;;;;;3.77;3.47;;;18.90;99.90;;;;;;4999994;28;20421;-64
2021/08/07 05:25:01;;;;;;;3.50;3.20;;;18.90;99.90;;;;;;4998223;28;20458;-66
2021/08/07 05:27:28;;;;;;;5.33;3.77;;;19.00;99.90;;;;;;4999956;28;20421;-66
2021/08/07 05:29:55;;;;;;;3.67;3.37;;;19.00;99.90;;;;;;4999338;28;20438;-66
2021/08/07 05:32:29;;;;;;;3.53;3.23;;;19.00;99.90;;;;;;4999547;28;20777;-65
2021/08/07 05:35:13;;;;;;;3.60;3.20;;;19.20;99.90;;;;;;4993753;28;20580;-65
2021/08/07 05:37:41;;;;;;;3.07;2.87;;;19.20;99.90;;;;;;5003982;28;20463;-66
2021/08/07 05:40:10;;;;;;;3.33;3.13;;;19.40;99.90;;;;;;4997756;28;20454;-64
2021/08/07 05:42:37;;;;;;;4.37;3.27;;;19.70;99.90;;;;;;5002723;28;20637;-65
2021/08/07 05:45:04;;;;;;;4.40;3.77;;;20.00;99.90;;;;;;4994482;28;20460;-65
2021/08/07 05:47:31;;;;;;;3.87;3.57;;;20.10;99.90;;;;;;4991724;28;20440;-65
2021/08/07 05:49:58;;;;;;;4.67;4.27;;;20.30;99.90;;;;;;4993771;28;20410;-65
2021/08/07 05:52:27;;;;;;;3.20;3.00;;;20.30;99.90;;;;;;5006463;28;20417;-65
2021/08/07 05:54:56;;;;;;;4.23;3.20;;;20.40;99.90;;;;;;4992550;28;20465;-65
2021/08/07 05:57:23;;;;;;;3.03;2.80;;;20.70;99.90;;;;;;4998026;28;20454;-65
2021/08/07 05:59:50;;;;;;;3.87;3.40;;;20.90;99.90;;;;;;4998726;28;20785;-66
2021/08/07 06:02:17;;;;;;;3.57;3.27;;;21.10;99.90;;;;;;5014312;28;20465;-67
2021/08/07 06:04:45;;;;;;;3.10;2.90;;;21.20;99.90;;;;;;5016521;28;20470;-66
2021/08/07 06:07:12;;;;;;;4.13;3.10;;;21.10;99.90;;;;;;5014511;28;20497;-65
2021/08/07 06:09:39;;;;;;;3.43;3.10;;;21.30;99.90;;;;;;5016760;28;20652;-66
2021/08/07 06:12:06;;;;;;;2.90;2.70;;;21.50;99.90;;;;;;5003961;28;20448;-66
2021/08/07 06:14:33;;;;;;;3.30;3.10;;;21.60;99.90;;;;;;5010162;28;20848;-65
2021/08/07 06:17:00;;;;;;;6.17;2.90;;;21.90;99.90;;;;;;5009364;28;20450;-65
2021/08/07 06:19:27;;;;;;;4.83;3.10;;;22.00;99.90;;;;;;4990820;28;20442;-65
2021/08/07 06:21:54;;;;;;;2.47;2.37;;;22.40;99.90;;;;;;4998614;28;20452;-65
2021/08/07 06:24:21;;;;;;;3.57;2.93;;;23.10;99.90;;;;;;4997903;28;20500;-65
2021/08/07 06:26:48;;;;;;;3.40;3.20;;;23.60;99.90;;;;;;4992856;28;20614;-66
2021/08/07 06:29:15;;;;;;;2.80;2.60;;;24.00;99.90;;;;;;4995979;28;20822;-65
2021/08/07 06:31:42;;;;;;;3.80;3.50;;;24.20;99.90;;;;;;4997850;28;20448;-65
2021/08/07 06:34:09;;;;;;;3.40;3.10;;;24.60;99.90;;;;;;4997775;28;20701;-66
2021/08/07 06:36:36;;;;;;;4.20;3.47;;;25.40;99.90;;;;;;4997209;28;20489;-65
2021/08/07 06:39:03;;;;;;;4.07;3.70;;;26.30;99.90;;;;;;4998188;28;20463;-66
2021/08/07 06:41:31;;;;;;;3.77;3.57;;;27.50;99.90;;;;;;4997987;28;20483;-66
2021/08/07 06:43:58;;;;;;;4.60;4.00;;;27.80;99.90;;;;;;5013907;28;20609;-66
2021/08/07 06:46:25;;;;;;;5.13;4.73;;;28.30;99.90;;;;;;5000466;28;20675;-66
2021/08/07 06:48:52;;;;;;;5.83;5.43;;;28.90;99.90;;;;;;5002796;28;20641;-66
2021/08/07 06:51:19;;;;;;;5.30;5.07;;;29.60;99.50;;;;;;5006280;28;20590;-65
2021/08/07 06:53:46;;;;;;;6.40;5.90;;;29.80;97.50;;;;;;4997912;28;20553;-66
2021/08/07 06:56:14;;;;;;;7.27;6.57;;;29.80;96.20;;;;;;4997608;28;20467;-65
2021/08/07 06:58:41;;;;;;;6.93;6.63;;;31.20;94.30;;;;;;4995531;28;20490;-66
2021/08/07 07:01:08;;;;;;;7.50;7.20;;;32.00;92.70;;;;;;4986724;28;20445;-66
2021/08/07 07:03:35;;;;;;;8.83;8.43;;;33.10;90.80;;;;;;4996527;28;20470;-66
2021/08/07 07:06:03;;;;;;;8.47;7.83;;;33.80;85.70;;;;;;5012903;28;20674;-67
2021/08/07 07:08:30;;;;;;;8.43;8.13;;;34.30;83.00;;;;;;4998082;28;20465;-66
2021/08/07 07:10:57;;;;;;;9.13;8.73;;;34.70;79.10;;;;;;4997749;28;20541;-65
2021/08/07 07:13:24;;;;;;;8.20;7.70;;;34.60;78.80;;;;;;4997325;28;20467;-67
2021/08/07 07:15:51;;;;;;;7.90;7.60;;;35.50;74.70;;;;;;4997058;28;20678;-66
2021/08/07 07:18:18;;;;;;;8.23;7.93;;;36.10;72.40;;;;;;4991446;28;20538;-67
2021/08/07 07:20:45;;;;;;;8.60;8.20;;;36.20;71.80;;;;;;4993146;28;20465;-66
2021/08/07 07:23:12;;;;;;;9.00;8.50;;;36.90;68.10;;;;;;4996886;28;20868;-66
2021/08/07 07:25:39;;;;;;;9.03;8.63;;;37.50;65.40;;;;;;4997186;28;20460;-66
2021/08/07 07:28:06;;;;;;;9.90;9.50;;;37.00;66.70;;;;;;4996992;28;20440;-66
2021/08/07 07:30:33;;;;;;;10.23;9.70;;;37.40;64.50;;;;;;4989155;28;20445;-67
2021/08/07 07:33:00;;;;;;;9.20;8.80;;;37.50;61.90;;;;;;5005441;28;20463;-67
2021/08/07 07:35:29;;;;;;;9.00;8.70;;;36.70;63.10;;;;;;5000919;28;20541;-67
2021/08/07 07:37:56;;;;;;;9.83;9.53;;;37.10;64.30;;;;;;4983312;28;20471;-67
2021/08/07 07:40:23;;;;;;;10.00;9.53;;;35.90;63.30;;;;;;4980531;28;21338;-67
2021/08/07 07:42:50;;;;;;;10.50;10.10;;;36.00;65.10;;;;;;4979802;28;20675;-68
2021/08/07 07:45:17;;;;;;;9.80;9.50;;;36.10;62.80;;;;;;4979644;28;20482;-66
2021/08/07 07:47:44;;;;;;;9.80;9.50;;;37.00;62.90;;;;;;4977241;28;20694;-68
2021/08/07 07:50:12;;;;;;;11.30;10.13;;;36.90;59.90;;;;;;4979012;28;20441;-67
2021/08/07 07:52:39;;;;;;;9.97;9.67;;;36.40;62.00;;;;;;4977749;28;20542;-67
2021/08/07 07:55:10;;;;;;;10.17;9.77;;;36.30;61.60;;;;;;4992238;28;20683;-69
2021/08/07 07:57:37;;;;;;;10.17;9.80;;;37.20;60.80;;;;;;4979535;28;20468;-68
2021/08/07 08:00:06;;;;;;;10.80;10.40;;;37.50;59.40;;;;;;4982774;28;20440;-68
2021/08/07 08:02:33;;;;;;;11.03;10.63;;;37.60;58.80;;;;;;4988393;28;20485;-68
2021/08/07 08:05:01;;;;;;;9.90;9.50;;;37.90;58.60;;;;;;4982368;28;20536;-69
2021/08/07 08:07:28;;;;;;;10.10;9.80;;;38.00;58.80;;;;;;4979254;28;20467;-68
2021/08/07 08:09:55;;;;;;;10.23;9.80;;;38.40;56.60;;;;;;4978563;28;20624;-68
2021/08/07 08:12:22;;;;;;;10.27;9.97;;;38.30;56.30;;;;;;4976989;28;20437;-68
2021/08/07 08:14:49;;;;;;;9.87;9.50;;;38.30;55.90;;;;;;4979918;28;20441;-67
2021/08/07 08:17:16;;;;;;;10.53;10.13;;;37.90;56.40;;;;;;4983151;28;20518;-68
2021/08/07 08:19:43;;;;;;;9.47;9.07;;;36.60;58.50;;;;;;4984802;28;20785;-69
2021/08/07 08:22:10;;;;;;;10.53;10.13;;;36.90;57.40;;;;;;4983412;28;20567;-69
2021/08/07 08:24:37;;;;;;;9.40;9.00;;;36.70;57.20;;;;;;4985811;28;20527;-68
2021/08/07 08:27:04;;;;;;;9.27;8.93;;;36.60;58.40;;;;;;4988095;28;20445;-70
2021/08/07 08:29:32;;;;;;;9.33;8.93;;;36.90;58.80;;;;;;4997182;28;20625;-70
2021/08/07 08:31:59;;;;;;;9.90;9.60;;;35.80;59.50;;;;;;4996663;28;20435;-69
2021/08/07 08:34:26;;;;;;;8.73;8.33;;;35.30;59.40;;;;;;4997157;28;20545;-68
2021/08/07 08:36:53;;;;;;;9.20;8.90;;;35.60;58.50;;;;;;4992725;28;20483;-68
2021/08/07 08:39:20;;;;;;;15.53;12.53;;;36.70;58.90;;;;;;4992406;28;20444;-68
2021/08/07 08:41:47;;;;;;;10.53;10.23;;;38.00;56.20;;;;;;4996591;28;20440;-69
2021/08/07 08:44:14;;;;;;;9.27;8.83;;;38.30;55.60;;;;;;4997751;28;20439;-70
2021/08/07 08:46:43;;;;;;;9.67;9.37;;;37.80;56.30;;;;;;4996809;28;20455;-67
2021/08/07 08:49:16;;;;;;;9.20;8.90;;;39.50;54.10;;;;;;5001989;28;20439;-67
2021/08/07 08:51:48;;;;;;;9.60;9.30;;;40.20;50.80;;;;;;5002587;28;20435;-69
2021/08/07 08:54:19;;;;;;;10.03;9.63;;;40.30;50.70;;;;;;5001630;28;20637;-68
2021/08/07 08:56:49;;;;;;;9.17;8.87;;;41.10;50.50;;;;;;5002209;28;20474;-69
2021/08/07 08:59:20;;;;;;;9.47;9.10;;;41.80;48.10;;;;;;5001984;28;20554;-70
2021/08/07 09:01:48;;;;;;;10.13;9.73;;;41.30;47.30;;;;;;4994466;28;20440;-68
2021/08/07 09:04:16;;;;;;;10.00;9.30;;;40.40;48.60;;;;;;5001026;28;20530;-72
2021/08/07 09:06:43;;;;;;;10.30;10.00;;;40.70;48.10;;;;;;4995205;28;20482;-71
2021/08/07 09:09:12;;;;;;;11.07;10.53;;;41.00;47.30;;;;;;5003418;28;20447;-69
2021/08/07 09:11:53;;;;;;;10.00;9.70;;;40.90;47.80;;;;;;4990210;28;20757;-71
2021/08/07 09:14:51;;;;;;;11.07;10.27;;;40.70;47.60;;;;;;4989908;28;20459;-69
2021/08/07 09:17:22;;;;;;;10.80;10.40;;;39.90;48.60;;;;;;4992755;28;20479;-70
2021/08/07 09:19:56;;;;;;;10.20;9.80;;;40.10;48.10;;;;;;4996725;28;20444;-70
2021/08/07 09:22:32;;;;;;;13.33;12.40;;;39.70;48.40;;;;;;4985189;28;20440;-69
2021/08/07 09:25:26;;;;;;;10.67;10.27;;;39.20;48.10;;;;;;4987793;28;20481;-70
2021/08/07 09:27:54;;;;;;;10.63;10.13;;;40.10;47.70;;;;;;4979443;28;20452;-70
2021/08/07 09:30:22;;;;;;;9.70;9.40;;;40.20;47.40;;;;;;4981924;28;20443;-69
2021/08/07 09:32:59;;;;;;;10.10;9.60;;;39.60;48.30;;;;;;4984300;28;20438;-69
2021/08/07 09:35:33;;;;;;;10.40;10.00;;;37.90;50.70;;;;;;4980427;28;20522;-70
2021/08/07 09:38:02;;;;;;;10.20;9.70;;;35.60;53.20;;;;;;4981149;28;20482;-68
2021/08/07 09:40:46;;;;;;;9.20;8.80;;;34.40;56.10;;;;;;4989608;28;20633;-69
2021/08/07 09:43:18;;;;;;;8.70;8.40;;;33.20;58.00;;;;;;5007352;28;20880;-68
2021/08/07 09:46:19;;;;;;;9.57;9.17;;;31.80;59.30;;;;;;4999297;28;20443;-69
2021/08/07 09:48:48;;;;;;;10.33;9.83;;;31.00;62.50;;;;;;4996634;28;20452;-70
2021/08/07 09:51:16;;;;;;;9.70;9.30;;;30.60;64.10;;;;;;4990747;28;20497;-68
2021/08/07 09:53:44;;;;;;;9.33;8.83;;;30.40;64.60;;;;;;4982517;28;20651;-69
2021/08/07 09:56:11;;;;;;;8.03;7.73;;;30.30;65.90;;;;;;4998152;28;20660;-69
2021/08/07 09:58:38;;;;;;;8.43;8.10;;;30.00;66.20;;;;;;5050556;28;20479;-69
2021/08/07 10:01:05;;;;;;;9.87;9.47;;;29.80;66.80;;;;;;5017642;28;20466;-71
2021/08/07 10:03:33;;;;;;;9.17;8.40;;;29.70;65.60;;;;;;5017877;28;20792;-68
2021/08/07 10:06:21;;;;;;;8.00;7.50;;;29.60;65.40;;;;;;4995647;28;20504;-69
2021/08/07 10:08:50;;;;;;;7.90;7.60;;;29.60;66.90;;;;;;5006874;28;20431;-70
2021/08/07 10:11:20;;;;;;;8.00;7.70;;;29.40;66.40;;;;;;4993708;28;20768;-68
2021/08/07 10:13:47;;;;;;;8.23;7.93;;;29.40;65.90;;;;;;5005123;28;20510;-69
2021/08/07 10:16:15;;;;;;;7.23;6.97;;;29.70;66.20;;;;;;5009814;28;20494;-70
2021/08/07 10:18:46;;;;;;;7.20;6.90;;;29.90;63.40;;;;;;4991806;28;20476;-70
2021/08/07 10:21:14;;;;;;;7.93;7.37;;;29.70;64.30;;;;;;4988223;28;20539;-69
2021/08/07 10:23:41;;;;;;;7.73;7.23;;;29.30;65.70;;;;;;4999200;28;20472;-69
2021/08/07 10:26:10;;;;;;;7.60;7.27;;;29.60;66.00;;;;;;4997903;28;20539;-71
2021/08/07 10:28:48;;;;;;;7.70;7.40;;;29.90;64.50;;;;;;4997767;28;20428;-69
2021/08/07 10:31:21;;;;;;;8.90;8.47;;;30.20;64.40;;;;;;5008117;28;20482;-68
2021/08/07 10:33:51;;;;;;;7.30;7.00;;;30.20;66.10;;;;;;4999281;28;20453;-70
2021/08/07 10:36:19;;;;;;;9.17;8.70;;;30.40;63.00;;;;;;4997986;28;20758;-69
2021/08/07 10:38:46;;;;;;;11.03;10.23;;;30.30;62.50;;;;;;5012799;28;20530;-70
2021/08/07 10:41:14;;;;;;;7.93;7.53;;;29.60;66.20;;;;;;4997044;28;20490;-71
2021/08/07 10:43:42;;;;;;;7.70;7.30;;;29.30;68.80;;;;;;4987689;28;20418;-70
2021/08/07 10:46:10;;;;;;;7.97;7.37;;;29.00;67.30;;;;;;4997871;28;20418;-69
2021/08/07 10:48:46;;;;;;;7.70;7.40;;;28.90;68.10;;;;;;4996177;28;20435;-69
2021/08/07 10:51:22;;;;;;;7.57;7.27;;;29.20;68.70;;;;;;4997988;28;20439;-71
2021/08/07 10:53:48;;;;;;;7.30;7.00;;;29.50;66.00;;;;;;5000308;28;20435;-71
2021/08/07 10:56:30;;;;;;;7.93;7.33;;;29.60;67.50;;;;;;5014783;28;20469;-69
2021/08/07 10:58:58;;;;;;;10.23;6.87;;;28.90;69.40;;;;;;5001881;28;20483;-70
2021/08/07 11:01:27;;;;;;;7.00;6.80;;;28.80;67.70;;;;;;5015784;28;20441;-69
2021/08/07 11:04:06;;;;;;;7.13;6.73;;;28.60;67.40;;;;;;5013663;28;20482;-69
2021/08/07 11:06:42;;;;;;;7.37;7.00;;;28.50;68.00;;;;;;5015669;28;20625;-71
2021/08/07 11:09:31;;;;;;;7.23;6.93;;;28.50;68.00;;;;;;5001846;28;20443;-69
2021/08/07 11:12:11;;;;;;;7.40;7.10;;;28.60;68.00;;;;;;5015824;28;20443;-69
2021/08/07 11:14:42;;;;;;;7.00;6.80;;;28.40;66.90;;;;;;5014944;28;20467;-69
2021/08/07 11:17:12;;;;;;;7.53;7.23;;;28.30;69.80;;;;;;5015366;28;20734;-70
2021/08/07 11:20:07;;;;;;;7.30;7.00;;;28.10;71.50;;;;;;4984862;28;20686;-69
2021/08/07 11:25:10;;;;;;;7.00;6.70;;;27.60;69.70;;;;;;4988552;28;20428;-72
2021/08/07 11:27:47;;;;;;;6.90;6.60;;;27.50;71.90;;;;;;5003237;28;20439;-69
2021/08/07 11:30:24;;;;;;;7.13;6.83;;;27.50;71.80;;;;;;4984229;28;20556;-70
2021/08/07 11:33:06;;;;;;;6.90;6.60;;;27.70;69.50;;;;;;4984689;28;20434;-69
2021/08/07 11:35:34;;;;;;;7.40;6.80;;;27.90;71.20;;;;;;4981108;28;20493;-70
2021/08/07 11:38:25;;;;;;;8.20;7.80;;;28.00;70.20;;;;;;4999944;28;20695;-69
2021/08/07 11:40:59;;;;;;;6.77;6.57;;;27.90;69.90;;;;;;4996364;28;20494;-70
2021/08/07 11:43:33;;;;;;;7.77;7.37;;;27.90;70.40;;;;;;5001462;28;20765;-68
2021/08/07 11:46:13;;;;;;;6.83;6.63;;;27.90;70.80;;;;;;5035364;28;20803;-70
2021/08/07 11:48:45;;;;;;;6.60;6.40;;;28.20;70.10;;;;;;4996635;28;20766;-69
2021/08/07 11:51:14;;;;;;;7.17;6.77;;;28.40;69.90;;;;;;4996935;28;20482;-69
2021/08/07 11:53:43;;;;;;;7.43;7.13;;;28.40;70.00;;;;;;4999158;28;20452;-70
2021/08/07 11:56:13;;;;;;;6.77;6.47;;;28.50;70.30;;;;;;5007400;28;20490;-70
2021/08/07 11:58:49;;;;;;;6.90;6.60;;;28.10;70.00;;;;;;4998484;28;20486;-68
2021/08/07 12:01:18;;;;;;;6.87;6.57;;;28.00;71.60;;;;;;4978382;28;20432;-70
2021/08/07 12:03:47;;;;;;;7.57;7.07;;;28.00;70.30;;;;;;5002533;28;20444;-70
2021/08/07 12:06:17;;;;;;;6.33;6.03;;;28.10;71.70;;;;;;5010842;28;20568;-70
2021/08/07 12:08:44;;;;;;;6.97;6.57;;;28.30;71.30;;;;;;5012454;28;20997;-70
2021/08/07 12:11:13;;;;;;;7.00;6.70;;;28.60;70.50;;;;;;4990487;28;20466;-70
2021/08/07 12:13:49;;;;;;;7.73;7.33;;;29.10;68.20;;;;;;5009638;28;20533;-71
2021/08/07 12:16:19;;;;;;;8.00;7.60;;;29.30;67.30;;;;;;5008955;28;20525;-70
2021/08/07 12:18:55;;;;;;;7.20;6.90;;;29.10;67.30;;;;;;4994555;28;20458;-71
2021/08/07 12:21:24;;;;;;;16.70;15.40;;;28.90;67.40;;;;;;4993855;28;20746;-71
2021/08/07 12:23:54;;;;;;;7.10;6.90;;;28.80;68.30;;;;;;4996853;28;20513;-69
2021/08/07 12:26:22;;;;;;;7.53;7.13;;;28.80;68.20;;;;;;4989643;28;20972;-72
2021/08/07 12:29:17;;;;;;;7.83;7.43;;;29.00;71.50;;;;;;5000439;28;20442;-70
2021/08/07 12:31:57;;;;;;;8.00;7.50;;;28.70;67.30;;;;;;4995635;28;20436;-69
2021/08/07 12:34:24;;;;;;;7.07;6.63;;;28.50;68.50;;;;;;4985955;28;20475;-71
2021/08/07 12:37:04;;;;;;;6.70;6.50;;;28.60;68.30;;;;;;4993867;28;20801;-70
2021/08/07 12:39:41;;;;;;;7.70;7.33;;;28.70;68.00;;;;;;4990882;28;20479;-70
2021/08/07 12:42:10;;;;;;;7.20;7.00;;;29.10;68.20;;;;;;4991564;28;20494;-70
2021/08/07 12:44:38;;;;;;;7.80;7.47;;;29.40;66.10;;;;;;4994510;28;20759;-71
2021/08/07 12:47:05;;;;;;;8.00;7.57;;;29.50;66.60;;;;;;4994011;28;20439;-71
2021/08/07 12:49:42;;;;;;;9.73;7.83;;;29.40;66.30;;;;;;4996200;28;20773;-70
2021/08/07 12:52:12;;;;;;;8.13;7.80;;;29.40;65.90;;;;;;4997105;28;20459;-70
2021/08/07 12:54:41;;;;;;;7.60;7.30;;;29.30;66.70;;;;;;4993249;28;20417;-70
2021/08/07 12:57:24;;;;;;;7.60;7.30;;;29.30;66.50;;;;;;4999469;28;20626;-71
2021/08/07 12:59:55;;;;;;;7.33;7.03;;;29.20;68.80;;;;;;4996854;28;20546;-70
2021/08/07 13:02:25;;;;;;;7.50;7.20;;;29.00;69.60;;;;;;4998149;28;20435;-71